DLH33U EDDF-LZIB
Flight info
| Callsign | DLH33U |
|---|---|
| Flight time | N/A |
| Altitude | 29000 |
| Route | SULUS7S/18 SULUS Z650 VEMUT DCT BUDEX BUDEX2W |
| Aircraft | A321/M-SDE2E3FGIJ1LORWXYZ/HB1 |
Departure
| Time | N/A |
|---|---|
| Airport | Frankfurt Main Airport (EDDF) |
Arrival
| Time | 2026-05-06 20:36 |
|---|---|
| Airport | M. R. Štefánik Airport (LZIB) |
| Time | Latitude | Longitude | Altitude | Speed | Heading |
|---|---|---|---|---|---|
| 2026-05-06 20:28 | 48.21910 | 16.96825 | 6044 ft | 265 kts | 72° |
| 2026-05-06 20:29 | 48.22610 | 16.99384 | 6047 ft | 265 kts | 70° |
| 2026-05-06 20:29 | 48.23312 | 17.01939 | 6050 ft | 265 kts | 72° |
| 2026-05-06 20:29 | 48.23949 | 17.04531 | 6053 ft | 265 kts | 73° |
| 2026-05-06 20:29 | 48.24570 | 17.07130 | 6056 ft | 264 kts | 73° |
| 2026-05-06 20:30 | 48.25176 | 17.09714 | 6054 ft | 261 kts | 73° |
| 2026-05-06 20:30 | 48.26399 | 17.14849 | 5820 ft | 260 kts | 73° |
| 2026-05-06 20:30 | 48.27000 | 17.17398 | 5474 ft | 259 kts | 73° |
| 2026-05-06 20:31 | 48.27601 | 17.19948 | 5119 ft | 259 kts | 73° |
| 2026-05-06 20:31 | 48.28200 | 17.22478 | 4870 ft | 253 kts | 74° |
| 2026-05-06 20:31 | 48.28788 | 17.24878 | 4660 ft | 239 kts | 73° |
| 2026-05-06 20:31 | 48.29367 | 17.27198 | 4249 ft | 235 kts | 74° |
| 2026-05-06 20:32 | 48.29734 | 17.29514 | 3914 ft | 220 kts | 96° |
| 2026-05-06 20:32 | 48.29362 | 17.31550 | 3654 ft | 190 kts | 134° |
| 2026-05-06 20:32 | 48.28414 | 17.32673 | 3411 ft | 164 kts | 167° |
| 2026-05-06 20:32 | 48.27343 | 17.32791 | 3170 ft | 155 kts | 192° |
| 2026-05-06 20:33 | 48.26314 | 17.32478 | 2956 ft | 146 kts | 197° |
| 2026-05-06 20:33 | 48.25359 | 17.32062 | 2736 ft | 140 kts | 199° |
| 2026-05-06 20:33 | 48.24449 | 17.31635 | 2502 ft | 134 kts | 199° |
| 2026-05-06 20:33 | 48.23639 | 17.30992 | 2183 ft | 135 kts | 226° |
| 2026-05-06 20:34 | 48.23129 | 17.29768 | 1913 ft | 135 kts | 222° |
| 2026-05-06 20:34 | 48.22455 | 17.28825 | 1708 ft | 133 kts | 212° |
| 2026-05-06 20:34 | 48.21754 | 17.27971 | 1567 ft | 130 kts | 213° |
| 2026-05-06 20:34 | 48.21049 | 17.27047 | 1425 ft | 137 kts | 217° |
| 2026-05-06 20:35 | 48.20341 | 17.26096 | 1226 ft | 137 kts | 217° |
| 2026-05-06 20:35 | 48.19682 | 17.25104 | 1004 ft | 130 kts | 215° |
| 2026-05-06 20:35 | 48.19009 | 17.24142 | 811 ft | 132 kts | 220° |
| 2026-05-06 20:35 | 48.18352 | 17.23205 | 602 ft | 129 kts | 219° |
| 2026-05-06 20:36 | 48.17710 | 17.22279 | 455 ft | 125 kts | 216° |
| 2026-05-06 20:36 | 48.17173 | 17.21517 | 431 ft | 74 kts | 224° |
| 2026-05-06 20:36 | 48.16963 | 17.21210 | 440 ft | 32 kts | 225° |
| 2026-05-06 20:36 | 48.16905 | 17.21081 | 437 ft | 8 kts | 283° |
| 2026-05-06 20:37 | 48.16940 | 17.21008 | 426 ft | 10 kts | 314° |
| 2026-05-06 20:37 | 48.16997 | 17.20921 | 427 ft | 13 kts | 314° |
| 2026-05-06 20:37 | 48.17065 | 17.20818 | 435 ft | 15 kts | 314° |
| 2026-05-06 20:37 | 48.17138 | 17.20703 | 439 ft | 16 kts | 314° |
| 2026-05-06 20:38 | 48.17163 | 17.20564 | 434 ft | 15 kts | 233° |
| 2026-05-06 20:38 | 48.17083 | 17.20450 | 440 ft | 17 kts | 224° |
| 2026-05-06 20:38 | 48.16997 | 17.20323 | 427 ft | 18 kts | 225° |
| 2026-05-06 20:38 | 48.16961 | 17.20221 | 432 ft | 9 kts | 302° |
| 2026-05-06 20:39 | 48.16983 | 17.20184 | 444 ft | 0 kts | 314° |